sensor_id;sensor_type;location;lat;lon;timestamp;P1;durP1;ratioP1;P2;durP2;ratioP2
59786;SDS011;45672;51.612;5.536;2023-02-13T00:01:22;47.47;;;23.75;;
59786;SDS011;45672;51.612;5.536;2023-02-13T00:03:48;42.35;;;23.42;;
59786;SDS011;45672;51.612;5.536;2023-02-13T00:06:13;43.22;;;23.48;;
59786;SDS011;45672;51.612;5.536;2023-02-13T00:08:38;46.80;;;23.25;;
59786;SDS011;45672;51.612;5.536;2023-02-13T00:11:04;45.38;;;24.33;;
59786;SDS011;45672;51.612;5.536;2023-02-13T00:13:29;45.72;;;24.08;;
59786;SDS011;45672;51.612;5.536;2023-02-13T00:15:58;46.13;;;24.02;;
59786;SDS011;45672;51.612;5.536;2023-02-13T00:18:25;45.92;;;23.83;;
59786;SDS011;45672;51.612;5.536;2023-02-13T00:20:58;47.60;;;23.73;;
59786;SDS011;45672;51.612;5.536;2023-02-13T00:23:23;47.70;;;23.42;;
59786;SDS011;45672;51.612;5.536;2023-02-13T00:25:49;49.05;;;23.70;;
59786;SDS011;45672;51.612;5.536;2023-02-13T00:28:14;46.22;;;23.95;;
59786;SDS011;45672;51.612;5.536;2023-02-13T00:30:39;44.45;;;22.92;;
59786;SDS011;45672;51.612;5.536;2023-02-13T00:33:04;49.50;;;24.27;;
59786;SDS011;45672;51.612;5.536;2023-02-13T00:35:30;45.20;;;23.73;;
59786;SDS011;45672;51.612;5.536;2023-02-13T00:37:55;47.65;;;24.55;;
59786;SDS011;45672;51.612;5.536;2023-02-13T00:40:21;49.50;;;24.75;;
59786;SDS011;45672;51.612;5.536;2023-02-13T00:42:46;49.13;;;25.85;;
59786;SDS011;45672;51.612;5.536;2023-02-13T00:45:11;49.88;;;24.30;;
59786;SDS011;45672;51.612;5.536;2023-02-13T00:47:37;48.88;;;24.25;;
59786;SDS011;45672;51.612;5.536;2023-02-13T00:50:02;49.42;;;24.65;;
59786;SDS011;45672;51.612;5.536;2023-02-13T00:52:28;46.13;;;24.50;;
59786;SDS011;45672;51.612;5.536;2023-02-13T00:54:53;48.30;;;23.92;;
59786;SDS011;45672;51.612;5.536;2023-02-13T00:57:18;50.75;;;24.23;;
59786;SDS011;45672;51.612;5.536;2023-02-13T00:59:44;49.65;;;24.75;;
59786;SDS011;45672;51.612;5.536;2023-02-13T01:02:09;47.88;;;24.50;;
59786;SDS011;45672;51.612;5.536;2023-02-13T01:04:34;44.78;;;24.58;;
59786;SDS011;45672;51.612;5.536;2023-02-13T01:06:59;47.70;;;24.95;;
59786;SDS011;45672;51.612;5.536;2023-02-13T01:09:25;50.03;;;24.58;;
59786;SDS011;45672;51.612;5.536;2023-02-13T01:11:50;46.97;;;24.67;;
59786;SDS011;45672;51.612;5.536;2023-02-13T01:14:15;47.75;;;26.00;;
59786;SDS011;45672;51.612;5.536;2023-02-13T01:16:41;44.83;;;23.65;;
59786;SDS011;45672;51.612;5.536;2023-02-13T01:19:06;49.90;;;25.63;;
59786;SDS011;45672;51.612;5.536;2023-02-13T01:21:31;50.75;;;25.55;;
59786;SDS011;45672;51.612;5.536;2023-02-13T01:23:57;49.15;;;25.13;;
59786;SDS011;45672;51.612;5.536;2023-02-13T01:26:22;48.25;;;25.10;;
59786;SDS011;45672;51.612;5.536;2023-02-13T01:28:54;50.92;;;26.08;;
59786;SDS011;45672;51.612;5.536;2023-02-13T01:31:21;48.58;;;25.52;;
59786;SDS011;45672;51.612;5.536;2023-02-13T01:33:47;53.55;;;25.65;;
59786;SDS011;45672;51.612;5.536;2023-02-13T01:36:12;46.75;;;25.88;;
59786;SDS011;45672;51.612;5.536;2023-02-13T01:38:38;51.30;;;26.77;;
59786;SDS011;45672;51.612;5.536;2023-02-13T01:41:04;54.78;;;26.17;;
59786;SDS011;45672;51.612;5.536;2023-02-13T01:46:49;48.30;;;25.77;;
59786;SDS011;45672;51.612;5.536;2023-02-13T01:49:16;51.00;;;25.58;;
59786;SDS011;45672;51.612;5.536;2023-02-13T01:51:44;47.17;;;24.35;;
59786;SDS011;45672;51.612;5.536;2023-02-13T01:54:19;53.78;;;26.50;;
59786;SDS011;45672;51.612;5.536;2023-02-13T01:56:48;51.67;;;25.83;;
59786;SDS011;45672;51.612;5.536;2023-02-13T01:59:19;54.30;;;26.88;;
59786;SDS011;45672;51.612;5.536;2023-02-13T02:01:47;48.97;;;25.90;;
59786;SDS011;45672;51.612;5.536;2023-02-13T02:04:14;50.63;;;26.95;;
59786;SDS011;45672;51.612;5.536;2023-02-13T02:06:47;50.53;;;26.50;;
59786;SDS011;45672;51.612;5.536;2023-02-13T02:09:17;52.85;;;27.13;;
59786;SDS011;45672;51.612;5.536;2023-02-13T02:11:55;51.95;;;26.75;;
59786;SDS011;45672;51.612;5.536;2023-02-13T02:14:22;51.03;;;26.33;;
59786;SDS011;45672;51.612;5.536;2023-02-13T02:16:47;48.33;;;26.50;;
59786;SDS011;45672;51.612;5.536;2023-02-13T02:25:15;51.58;;;26.95;;
59786;SDS011;45672;51.612;5.536;2023-02-13T02:39:29;47.70;;;25.45;;
59786;SDS011;45672;51.612;5.536;2023-02-13T02:45:04;56.90;;;28.02;;
59786;SDS011;45672;51.612;5.536;2023-02-13T02:51:15;49.60;;;25.92;;
59786;SDS011;45672;51.612;5.536;2023-02-13T02:53:45;48.50;;;26.92;;
59786;SDS011;45672;51.612;5.536;2023-02-13T02:56:25;51.85;;;26.83;;
59786;SDS011;45672;51.612;5.536;2023-02-13T02:59:05;50.65;;;26.20;;
59786;SDS011;45672;51.612;5.536;2023-02-13T03:01:54;51.15;;;26.38;;
59786;SDS011;45672;51.612;5.536;2023-02-13T03:04:41;51.55;;;26.52;;
59786;SDS011;45672;51.612;5.536;2023-02-13T03:07:28;46.58;;;25.90;;
59786;SDS011;45672;51.612;5.536;2023-02-13T03:09:57;55.03;;;26.88;;
59786;SDS011;45672;51.612;5.536;2023-02-13T03:12:50;49.72;;;26.45;;
59786;SDS011;45672;51.612;5.536;2023-02-13T03:15:38;53.13;;;26.23;;
59786;SDS011;45672;51.612;5.536;2023-02-13T03:18:27;49.75;;;26.05;;
59786;SDS011;45672;51.612;5.536;2023-02-13T03:24:43;46.22;;;25.17;;
59786;SDS011;45672;51.612;5.536;2023-02-13T03:36:06;53.85;;;27.45;;
59786;SDS011;45672;51.612;5.536;2023-02-13T03:42:00;48.95;;;25.38;;
59786;SDS011;45672;51.612;5.536;2023-02-13T03:44:31;54.72;;;26.02;;
59786;SDS011;45672;51.612;5.536;2023-02-13T03:47:01;52.22;;;26.55;;
59786;SDS011;45672;51.612;5.536;2023-02-13T03:49:35;51.10;;;26.30;;
59786;SDS011;45672;51.612;5.536;2023-02-13T03:52:25;51.30;;;27.00;;
59786;SDS011;45672;51.612;5.536;2023-02-13T03:55:00;53.58;;;26.23;;
59786;SDS011;45672;51.612;5.536;2023-02-13T03:57:49;50.13;;;25.65;;
59786;SDS011;45672;51.612;5.536;2023-02-13T04:00:38;54.83;;;26.02;;
59786;SDS011;45672;51.612;5.536;2023-02-13T04:06:04;52.92;;;27.27;;
59786;SDS011;45672;51.612;5.536;2023-02-13T04:08:33;63.45;;;26.98;;
59786;SDS011;45672;51.612;5.536;2023-02-13T04:11:02;46.30;;;25.52;;
59786;SDS011;45672;51.612;5.536;2023-02-13T04:13:35;57.58;;;27.55;;
59786;SDS011;45672;51.612;5.536;2023-02-13T04:16:09;52.28;;;26.45;;
59786;SDS011;45672;51.612;5.536;2023-02-13T04:19:01;55.65;;;26.95;;
59786;SDS011;45672;51.612;5.536;2023-02-13T04:21:35;57.28;;;27.25;;
59786;SDS011;45672;51.612;5.536;2023-02-13T04:24:04;59.97;;;25.85;;
59786;SDS011;45672;51.612;5.536;2023-02-13T04:26:34;49.92;;;25.98;;
59786;SDS011;45672;51.612;5.536;2023-02-13T04:29:01;53.53;;;27.20;;
59786;SDS011;45672;51.612;5.536;2023-02-13T04:31:27;50.45;;;25.92;;
59786;SDS011;45672;51.612;5.536;2023-02-13T04:33:52;48.85;;;26.15;;
59786;SDS011;45672;51.612;5.536;2023-02-13T04:36:17;50.45;;;25.52;;
59786;SDS011;45672;51.612;5.536;2023-02-13T04:38:43;55.90;;;26.23;;
59786;SDS011;45672;51.612;5.536;2023-02-13T04:41:09;51.28;;;25.52;;
59786;SDS011;45672;51.612;5.536;2023-02-13T04:43:35;51.17;;;25.48;;
59786;SDS011;45672;51.612;5.536;2023-02-13T04:46:01;52.05;;;26.40;;
59786;SDS011;45672;51.612;5.536;2023-02-13T04:48:26;51.55;;;26.33;;
59786;SDS011;45672;51.612;5.536;2023-02-13T04:50:52;53.83;;;25.58;;
59786;SDS011;45672;51.612;5.536;2023-02-13T04:53:17;62.88;;;27.95;;
59786;SDS011;45672;51.612;5.536;2023-02-13T04:55:42;51.55;;;25.02;;
59786;SDS011;45672;51.612;5.536;2023-02-13T04:58:08;52.83;;;25.65;;
59786;SDS011;45672;51.612;5.536;2023-02-13T05:00:33;50.95;;;25.73;;
59786;SDS011;45672;51.612;5.536;2023-02-13T05:03:08;52.42;;;26.55;;
59786;SDS011;45672;51.612;5.536;2023-02-13T05:05:35;54.65;;;26.67;;
59786;SDS011;45672;51.612;5.536;2023-02-13T05:08:01;53.03;;;26.13;;
59786;SDS011;45672;51.612;5.536;2023-02-13T05:10:27;52.05;;;26.80;;
59786;SDS011;45672;51.612;5.536;2023-02-13T05:12:52;51.45;;;26.27;;
59786;SDS011;45672;51.612;5.536;2023-02-13T05:15:17;52.15;;;25.55;;
59786;SDS011;45672;51.612;5.536;2023-02-13T05:17:43;46.33;;;24.80;;
59786;SDS011;45672;51.612;5.536;2023-02-13T05:20:09;47.83;;;25.75;;
59786;SDS011;45672;51.612;5.536;2023-02-13T05:22:35;53.00;;;26.38;;
59786;SDS011;45672;51.612;5.536;2023-02-13T05:25:19;50.20;;;24.75;;
59786;SDS011;45672;51.612;5.536;2023-02-13T05:27:45;51.33;;;25.55;;
59786;SDS011;45672;51.612;5.536;2023-02-13T05:30:11;49.97;;;26.52;;
59786;SDS011;45672;51.612;5.536;2023-02-13T05:32:36;48.35;;;26.10;;
59786;SDS011;45672;51.612;5.536;2023-02-13T05:35:02;54.70;;;26.02;;
59786;SDS011;45672;51.612;5.536;2023-02-13T05:37:28;53.15;;;25.95;;
59786;SDS011;45672;51.612;5.536;2023-02-13T05:39:54;53.53;;;26.00;;
59786;SDS011;45672;51.612;5.536;2023-02-13T05:42:19;51.60;;;24.83;;
59786;SDS011;45672;51.612;5.536;2023-02-13T05:44:44;52.22;;;27.67;;
59786;SDS011;45672;51.612;5.536;2023-02-13T05:47:09;52.60;;;25.15;;
59786;SDS011;45672;51.612;5.536;2023-02-13T05:49:35;51.33;;;25.38;;
59786;SDS011;45672;51.612;5.536;2023-02-13T05:52:00;52.92;;;26.52;;
59786;SDS011;45672;51.612;5.536;2023-02-13T05:54:25;51.85;;;26.35;;
59786;SDS011;45672;51.612;5.536;2023-02-13T05:56:51;55.10;;;25.50;;
59786;SDS011;45672;51.612;5.536;2023-02-13T05:59:16;56.33;;;27.75;;
59786;SDS011;45672;51.612;5.536;2023-02-13T06:01:41;57.50;;;25.08;;
59786;SDS011;45672;51.612;5.536;2023-02-13T06:04:06;47.85;;;25.80;;
59786;SDS011;45672;51.612;5.536;2023-02-13T06:06:32;117.15;;;54.22;;
59786;SDS011;45672;51.612;5.536;2023-02-13T06:08:57;62.33;;;31.48;;
59786;SDS011;45672;51.612;5.536;2023-02-13T06:11:22;51.45;;;26.95;;
59786;SDS011;45672;51.612;5.536;2023-02-13T06:13:48;47.28;;;25.63;;
59786;SDS011;45672;51.612;5.536;2023-02-13T06:16:13;49.22;;;24.27;;
59786;SDS011;45672;51.612;5.536;2023-02-13T06:18:38;51.55;;;26.58;;
59786;SDS011;45672;51.612;5.536;2023-02-13T06:21:04;46.75;;;25.35;;
59786;SDS011;45672;51.612;5.536;2023-02-13T06:23:30;48.58;;;25.25;;
59786;SDS011;45672;51.612;5.536;2023-02-13T06:26:00;54.38;;;26.27;;
59786;SDS011;45672;51.612;5.536;2023-02-13T06:28:29;52.92;;;26.08;;
59786;SDS011;45672;51.612;5.536;2023-02-13T06:30:54;51.53;;;25.15;;
59786;SDS011;45672;51.612;5.536;2023-02-13T06:33:20;48.88;;;25.60;;
59786;SDS011;45672;51.612;5.536;2023-02-13T06:35:45;49.00;;;25.17;;
59786;SDS011;45672;51.612;5.536;2023-02-13T06:38:10;51.33;;;26.13;;
59786;SDS011;45672;51.612;5.536;2023-02-13T06:40:36;49.60;;;26.65;;
59786;SDS011;45672;51.612;5.536;2023-02-13T06:43:01;51.47;;;25.20;;
59786;SDS011;45672;51.612;5.536;2023-02-13T06:45:26;48.10;;;24.55;;
59786;SDS011;45672;51.612;5.536;2023-02-13T06:47:52;49.47;;;24.70;;
59786;SDS011;45672;51.612;5.536;2023-02-13T06:50:18;46.55;;;24.92;;
59786;SDS011;45672;51.612;5.536;2023-02-13T06:52:47;51.50;;;25.25;;
59786;SDS011;45672;51.612;5.536;2023-02-13T06:55:14;45.03;;;24.58;;
59786;SDS011;45672;51.612;5.536;2023-02-13T06:57:41;47.50;;;24.05;;
59786;SDS011;45672;51.612;5.536;2023-02-13T07:00:07;49.05;;;24.67;;
59786;SDS011;45672;51.612;5.536;2023-02-13T07:02:37;45.20;;;24.80;;
59786;SDS011;45672;51.612;5.536;2023-02-13T07:05:03;48.58;;;25.60;;
59786;SDS011;45672;51.612;5.536;2023-02-13T07:07:31;47.78;;;24.95;;
59786;SDS011;45672;51.612;5.536;2023-02-13T07:09:57;65.25;;;25.52;;
59786;SDS011;45672;51.612;5.536;2023-02-13T07:12:22;46.53;;;25.92;;
59786;SDS011;45672;51.612;5.536;2023-02-13T07:14:48;50.08;;;25.52;;
59786;SDS011;45672;51.612;5.536;2023-02-13T07:17:13;55.55;;;26.48;;
59786;SDS011;45672;51.612;5.536;2023-02-13T07:19:38;56.75;;;24.60;;
59786;SDS011;45672;51.612;5.536;2023-02-13T07:22:04;49.47;;;25.45;;
59786;SDS011;45672;51.612;5.536;2023-02-13T07:24:29;46.13;;;23.40;;
59786;SDS011;45672;51.612;5.536;2023-02-13T07:26:54;44.67;;;25.17;;
59786;SDS011;45672;51.612;5.536;2023-02-13T07:29:19;55.83;;;26.35;;
59786;SDS011;45672;51.612;5.536;2023-02-13T07:31:45;47.45;;;24.58;;
59786;SDS011;45672;51.612;5.536;2023-02-13T07:34:10;53.55;;;27.25;;
59786;SDS011;45672;51.612;5.536;2023-02-13T07:36:35;59.03;;;29.83;;
59786;SDS011;45672;51.612;5.536;2023-02-13T07:39:01;56.28;;;29.10;;
59786;SDS011;45672;51.612;5.536;2023-02-13T07:41:26;56.13;;;28.95;;
59786;SDS011;45672;51.612;5.536;2023-02-13T07:43:51;54.53;;;28.90;;
59786;SDS011;45672;51.612;5.536;2023-02-13T07:46:17;59.78;;;30.10;;
59786;SDS011;45672;51.612;5.536;2023-02-13T07:48:43;54.08;;;28.15;;
59786;SDS011;45672;51.612;5.536;2023-02-13T07:51:08;52.65;;;28.05;;
59786;SDS011;45672;51.612;5.536;2023-02-13T07:53:34;52.10;;;27.55;;
59786;SDS011;45672;51.612;5.536;2023-02-13T07:56:03;57.33;;;29.00;;
59786;SDS011;45672;51.612;5.536;2023-02-13T07:58:32;54.92;;;28.55;;
59786;SDS011;45672;51.612;5.536;2023-02-13T08:01:04;50.20;;;28.45;;
59786;SDS011;45672;51.612;5.536;2023-02-13T08:03:30;58.58;;;31.35;;
59786;SDS011;45672;51.612;5.536;2023-02-13T08:05:56;58.78;;;30.25;;
59786;SDS011;45672;51.612;5.536;2023-02-13T08:08:21;57.97;;;30.80;;
59786;SDS011;45672;51.612;5.536;2023-02-13T08:10:46;62.13;;;33.05;;
59786;SDS011;45672;51.612;5.536;2023-02-13T08:13:30;57.90;;;30.08;;
59786;SDS011;45672;51.612;5.536;2023-02-13T08:15:56;51.15;;;28.70;;
59786;SDS011;45672;51.612;5.536;2023-02-13T08:18:21;54.33;;;31.65;;
59786;SDS011;45672;51.612;5.536;2023-02-13T08:20:46;59.25;;;32.65;;
59786;SDS011;45672;51.612;5.536;2023-02-13T08:23:12;55.67;;;30.98;;
59786;SDS011;45672;51.612;5.536;2023-02-13T08:25:37;54.85;;;30.98;;
59786;SDS011;45672;51.612;5.536;2023-02-13T08:28:03;54.33;;;30.95;;
59786;SDS011;45672;51.612;5.536;2023-02-13T08:30:28;53.50;;;30.98;;
59786;SDS011;45672;51.612;5.536;2023-02-13T08:32:54;48.63;;;29.27;;
59786;SDS011;45672;51.612;5.536;2023-02-13T08:35:20;51.97;;;30.23;;
59786;SDS011;45672;51.612;5.536;2023-02-13T08:37:46;46.28;;;29.55;;
59786;SDS011;45672;51.612;5.536;2023-02-13T08:40:12;50.58;;;28.95;;
59786;SDS011;45672;51.612;5.536;2023-02-13T08:42:37;48.58;;;29.25;;
59786;SDS011;45672;51.612;5.536;2023-02-13T08:45:03;45.67;;;28.23;;
59786;SDS011;45672;51.612;5.536;2023-02-13T08:47:29;46.08;;;27.70;;
59786;SDS011;45672;51.612;5.536;2023-02-13T08:49:55;45.38;;;27.52;;
59786;SDS011;45672;51.612;5.536;2023-02-13T08:52:20;47.15;;;26.88;;
59786;SDS011;45672;51.612;5.536;2023-02-13T08:54:46;42.85;;;25.63;;
59786;SDS011;45672;51.612;5.536;2023-02-13T08:57:11;44.88;;;25.58;;
59786;SDS011;45672;51.612;5.536;2023-02-13T08:59:36;43.42;;;25.85;;
59786;SDS011;45672;51.612;5.536;2023-02-13T09:02:02;49.45;;;26.23;;
59786;SDS011;45672;51.612;5.536;2023-02-13T09:04:27;42.67;;;24.67;;
59786;SDS011;45672;51.612;5.536;2023-02-13T09:06:52;38.83;;;24.55;;
59786;SDS011;45672;51.612;5.536;2023-02-13T09:09:18;37.97;;;24.88;;
59786;SDS011;45672;51.612;5.536;2023-02-13T09:11:43;36.38;;;22.90;;
59786;SDS011;45672;51.612;5.536;2023-02-13T09:14:09;35.85;;;21.52;;
59786;SDS011;45672;51.612;5.536;2023-02-13T09:16:34;30.38;;;21.17;;
59786;SDS011;45672;51.612;5.536;2023-02-13T09:18:59;29.42;;;20.48;;
59786;SDS011;45672;51.612;5.536;2023-02-13T09:21:25;32.20;;;20.77;;
59786;SDS011;45672;51.612;5.536;2023-02-13T09:23:50;31.38;;;20.77;;
59786;SDS011;45672;51.612;5.536;2023-02-13T09:26:17;30.55;;;19.92;;
59786;SDS011;45672;51.612;5.536;2023-02-13T09:28:43;27.35;;;18.30;;
59786;SDS011;45672;51.612;5.536;2023-02-13T09:31:09;29.90;;;19.40;;
59786;SDS011;45672;51.612;5.536;2023-02-13T09:33:36;29.13;;;18.90;;
59786;SDS011;45672;51.612;5.536;2023-02-13T09:36:09;32.13;;;21.08;;
59786;SDS011;45672;51.612;5.536;2023-02-13T09:38:35;24.77;;;18.65;;
59786;SDS011;45672;51.612;5.536;2023-02-13T09:41:03;25.85;;;18.67;;
59786;SDS011;45672;51.612;5.536;2023-02-13T09:43:36;25.73;;;18.02;;
59786;SDS011;45672;51.612;5.536;2023-02-13T09:46:11;25.35;;;18.42;;
59786;SDS011;45672;51.612;5.536;2023-02-13T09:48:40;21.30;;;16.45;;
59786;SDS011;45672;51.612;5.536;2023-02-13T09:51:10;23.10;;;17.00;;
59786;SDS011;45672;51.612;5.536;2023-02-13T09:53:39;23.73;;;16.65;;
59786;SDS011;45672;51.612;5.536;2023-02-13T09:56:14;22.65;;;16.25;;
59786;SDS011;45672;51.612;5.536;2023-02-13T09:58:48;23.85;;;16.42;;
59786;SDS011;45672;51.612;5.536;2023-02-13T10:01:38;20.10;;;15.95;;
59786;SDS011;45672;51.612;5.536;2023-02-13T10:04:24;24.48;;;17.95;;
59786;SDS011;45672;51.612;5.536;2023-02-13T10:06:56;20.38;;;16.92;;
59786;SDS011;45672;51.612;5.536;2023-02-13T10:09:43;22.38;;;16.92;;
59786;SDS011;45672;51.612;5.536;2023-02-13T10:15:06;26.23;;;17.65;;
59786;SDS011;45672;51.612;5.536;2023-02-13T10:17:39;25.25;;;18.52;;
59786;SDS011;45672;51.612;5.536;2023-02-13T10:28:29;25.05;;;17.83;;
59786;SDS011;45672;51.612;5.536;2023-02-13T10:33:34;26.38;;;18.55;;
59786;SDS011;45672;51.612;5.536;2023-02-13T10:36:15;27.63;;;18.98;;
59786;SDS011;45672;51.612;5.536;2023-02-13T10:38:56;28.48;;;18.77;;
59786;SDS011;45672;51.612;5.536;2023-02-13T10:41:48;27.23;;;18.75;;
59786;SDS011;45672;51.612;5.536;2023-02-13T10:44:45;28.17;;;18.10;;
59786;SDS011;45672;51.612;5.536;2023-02-13T10:47:23;27.75;;;18.75;;
59786;SDS011;45672;51.612;5.536;2023-02-13T10:52:50;30.23;;;19.65;;
59786;SDS011;45672;51.612;5.536;2023-02-13T10:58:12;28.77;;;20.02;;
59786;SDS011;45672;51.612;5.536;2023-02-13T11:03:27;30.17;;;19.58;;
59786;SDS011;45672;51.612;5.536;2023-02-13T11:05:54;29.33;;;18.92;;
59786;SDS011;45672;51.612;5.536;2023-02-13T11:08:23;26.50;;;19.02;;
59786;SDS011;45672;51.612;5.536;2023-02-13T11:10:55;26.17;;;18.40;;
59786;SDS011;45672;51.612;5.536;2023-02-13T11:13:22;27.98;;;19.40;;
59786;SDS011;45672;51.612;5.536;2023-02-13T11:16:04;25.60;;;18.73;;
59786;SDS011;45672;51.612;5.536;2023-02-13T11:18:38;30.08;;;18.42;;
59786;SDS011;45672;51.612;5.536;2023-02-13T11:21:07;31.63;;;18.90;;
59786;SDS011;45672;51.612;5.536;2023-02-13T11:23:53;24.58;;;17.08;;
59786;SDS011;45672;51.612;5.536;2023-02-13T11:26:26;26.67;;;17.60;;
59786;SDS011;45672;51.612;5.536;2023-02-13T11:28:59;25.42;;;17.88;;
59786;SDS011;45672;51.612;5.536;2023-02-13T11:31:34;26.52;;;17.10;;
59786;SDS011;45672;51.612;5.536;2023-02-13T11:36:45;24.13;;;17.05;;
59786;SDS011;45672;51.612;5.536;2023-02-13T11:39:17;29.05;;;18.23;;
59786;SDS011;45672;51.612;5.536;2023-02-13T11:41:44;28.08;;;18.20;;
59786;SDS011;45672;51.612;5.536;2023-02-13T11:44:27;25.42;;;17.95;;
59786;SDS011;45672;51.612;5.536;2023-02-13T11:46:58;30.13;;;17.85;;
59786;SDS011;45672;51.612;5.536;2023-02-13T11:49:44;29.67;;;17.10;;
59786;SDS011;45672;51.612;5.536;2023-02-13T11:52:21;25.27;;;16.38;;
59786;SDS011;45672;51.612;5.536;2023-02-13T11:55:23;24.83;;;16.00;;
59786;SDS011;45672;51.612;5.536;2023-02-13T11:57:58;25.13;;;17.02;;
59786;SDS011;45672;51.612;5.536;2023-02-13T12:00:32;26.42;;;17.05;;
59786;SDS011;45672;51.612;5.536;2023-02-13T12:03:02;23.80;;;15.75;;
59786;SDS011;45672;51.612;5.536;2023-02-13T12:08:33;22.73;;;15.48;;
59786;SDS011;45672;51.612;5.536;2023-02-13T12:11:01;25.58;;;16.00;;
59786;SDS011;45672;51.612;5.536;2023-02-13T12:13:34;25.90;;;16.23;;
59786;SDS011;45672;51.612;5.536;2023-02-13T12:16:09;26.45;;;15.77;;
59786;SDS011;45672;51.612;5.536;2023-02-13T12:18:43;24.23;;;16.00;;
59786;SDS011;45672;51.612;5.536;2023-02-13T12:24:29;24.15;;;14.73;;
59786;SDS011;45672;51.612;5.536;2023-02-13T12:27:22;26.88;;;15.55;;
59786;SDS011;45672;51.612;5.536;2023-02-13T12:32:58;23.67;;;15.18;;
59786;SDS011;45672;51.612;5.536;2023-02-13T12:41:43;23.52;;;15.57;;
59786;SDS011;45672;51.612;5.536;2023-02-13T12:55:31;25.05;;;15.65;;
59786;SDS011;45672;51.612;5.536;2023-02-13T13:03:48;24.90;;;17.23;;
59786;SDS011;45672;51.612;5.536;2023-02-13T13:09:23;23.33;;;15.88;;
59786;SDS011;45672;51.612;5.536;2023-02-13T13:28:55;22.33;;;15.63;;
59786;SDS011;45672;51.612;5.536;2023-02-13T13:31:22;24.30;;;15.43;;
59786;SDS011;45672;51.612;5.536;2023-02-13T13:33:50;22.73;;;15.52;;
59786;SDS011;45672;51.612;5.536;2023-02-13T13:45:02;21.65;;;14.57;;
59786;SDS011;45672;51.612;5.536;2023-02-13T13:50:18;23.58;;;15.02;;
59786;SDS011;45672;51.612;5.536;2023-02-13T13:53:21;18.73;;;14.23;;
59786;SDS011;45672;51.612;5.536;2023-02-13T14:01:20;20.73;;;15.00;;
59786;SDS011;45672;51.612;5.536;2023-02-13T14:06:19;20.65;;;15.82;;
59786;SDS011;45672;51.612;5.536;2023-02-13T14:08:54;20.53;;;15.47;;
59786;SDS011;45672;51.612;5.536;2023-02-13T14:11:25;25.20;;;15.60;;
59786;SDS011;45672;51.612;5.536;2023-02-13T14:13:56;19.17;;;14.45;;
59786;SDS011;45672;51.612;5.536;2023-02-13T14:19:02;22.55;;;15.43;;
59786;SDS011;45672;51.612;5.536;2023-02-13T14:21:30;25.58;;;16.88;;
59786;SDS011;45672;51.612;5.536;2023-02-13T14:23:55;22.15;;;16.10;;
59786;SDS011;45672;51.612;5.536;2023-02-13T14:26:34;24.33;;;16.58;;
59786;SDS011;45672;51.612;5.536;2023-02-13T14:29:24;24.08;;;17.20;;
59786;SDS011;45672;51.612;5.536;2023-02-13T14:34:32;28.55;;;17.02;;
59786;SDS011;45672;51.612;5.536;2023-02-13T14:39:41;23.73;;;16.80;;
59786;SDS011;45672;51.612;5.536;2023-02-13T14:45:12;26.77;;;15.77;;
59786;SDS011;45672;51.612;5.536;2023-02-13T14:47:44;22.30;;;16.17;;
59786;SDS011;45672;51.612;5.536;2023-02-13T14:50:18;25.75;;;15.73;;
59786;SDS011;45672;51.612;5.536;2023-02-13T14:52:49;24.20;;;17.15;;
59786;SDS011;45672;51.612;5.536;2023-02-13T14:55:39;22.15;;;16.38;;
59786;SDS011;45672;51.612;5.536;2023-02-13T15:00:55;23.42;;;17.00;;
59786;SDS011;45672;51.612;5.536;2023-02-13T15:03:46;27.65;;;17.60;;
59786;SDS011;45672;51.612;5.536;2023-02-13T15:06:23;27.52;;;18.17;;
59786;SDS011;45672;51.612;5.536;2023-02-13T15:08:52;24.50;;;18.08;;
59786;SDS011;45672;51.612;5.536;2023-02-13T15:11:33;30.88;;;18.10;;
59786;SDS011;45672;51.612;5.536;2023-02-13T15:16:53;29.83;;;17.67;;
59786;SDS011;45672;51.612;5.536;2023-02-13T15:19:24;30.25;;;18.50;;
59786;SDS011;45672;51.612;5.536;2023-02-13T15:21:51;24.80;;;17.45;;
59786;SDS011;45672;51.612;5.536;2023-02-13T15:24:19;28.83;;;18.02;;
59786;SDS011;45672;51.612;5.536;2023-02-13T15:35:46;28.80;;;18.33;;
59786;SDS011;45672;51.612;5.536;2023-02-13T15:38:38;25.90;;;18.77;;
59786;SDS011;45672;51.612;5.536;2023-02-13T15:41:05;31.90;;;18.23;;
59786;SDS011;45672;51.612;5.536;2023-02-13T15:43:45;28.83;;;18.40;;
59786;SDS011;45672;51.612;5.536;2023-02-13T15:49:07;25.92;;;18.05;;
59786;SDS011;45672;51.612;5.536;2023-02-13T15:51:36;28.58;;;18.08;;
59786;SDS011;45672;51.612;5.536;2023-02-13T15:56:48;24.55;;;15.98;;
59786;SDS011;45672;51.612;5.536;2023-02-13T15:59:15;23.13;;;15.57;;
59786;SDS011;45672;51.612;5.536;2023-02-13T16:01:45;22.48;;;16.70;;
59786;SDS011;45672;51.612;5.536;2023-02-13T16:04:12;22.63;;;15.90;;
59786;SDS011;45672;51.612;5.536;2023-02-13T16:06:44;25.00;;;16.45;;
59786;SDS011;45672;51.612;5.536;2023-02-13T16:09:24;26.20;;;17.15;;
59786;SDS011;45672;51.612;5.536;2023-02-13T16:12:00;26.70;;;16.13;;
59786;SDS011;45672;51.612;5.536;2023-02-13T16:14:28;32.70;;;16.65;;
59786;SDS011;45672;51.612;5.536;2023-02-13T16:19:31;29.23;;;17.48;;
59786;SDS011;45672;51.612;5.536;2023-02-13T16:25:43;23.30;;;16.45;;
59786;SDS011;45672;51.612;5.536;2023-02-13T16:27:53;23.27;;;16.98;;
59786;SDS011;45672;51.612;5.536;2023-02-13T16:35:42;28.42;;;16.90;;
59786;SDS011;45672;51.612;5.536;2023-02-13T16:38:32;23.02;;;17.08;;
59786;SDS011;45672;51.612;5.536;2023-02-13T16:49:02;28.77;;;17.95;;
59786;SDS011;45672;51.612;5.536;2023-02-13T16:56:49;29.13;;;18.52;;
59786;SDS011;45672;51.612;5.536;2023-02-13T17:02:44;28.50;;;18.15;;
59786;SDS011;45672;51.612;5.536;2023-02-13T17:07:37;29.02;;;18.58;;
59786;SDS011;45672;51.612;5.536;2023-02-13T17:10:21;35.03;;;20.20;;
59786;SDS011;45672;51.612;5.536;2023-02-13T17:12:48;28.67;;;18.42;;
59786;SDS011;45672;51.612;5.536;2023-02-13T17:15:19;31.25;;;18.40;;
59786;SDS011;45672;51.612;5.536;2023-02-13T17:17:46;27.95;;;18.75;;
59786;SDS011;45672;51.612;5.536;2023-02-13T17:20:13;30.70;;;19.30;;
59786;SDS011;45672;51.612;5.536;2023-02-13T17:22:42;30.70;;;20.05;;
59786;SDS011;45672;51.612;5.536;2023-02-13T17:25:17;31.52;;;20.30;;
59786;SDS011;45672;51.612;5.536;2023-02-13T17:27:46;41.70;;;19.17;;
59786;SDS011;45672;51.612;5.536;2023-02-13T17:30:17;33.63;;;19.55;;
59786;SDS011;45672;51.612;5.536;2023-02-13T17:32:51;35.22;;;20.67;;
59786;SDS011;45672;51.612;5.536;2023-02-13T17:35:21;36.28;;;20.50;;
59786;SDS011;45672;51.612;5.536;2023-02-13T17:37:46;33.35;;;22.00;;
59786;SDS011;45672;51.612;5.536;2023-02-13T17:40:15;33.22;;;21.63;;
59786;SDS011;45672;51.612;5.536;2023-02-13T17:42:43;36.10;;;21.67;;
59786;SDS011;45672;51.612;5.536;2023-02-13T17:45:12;43.35;;;23.83;;
59786;SDS011;45672;51.612;5.536;2023-02-13T17:47:39;37.13;;;24.58;;
59786;SDS011;45672;51.612;5.536;2023-02-13T17:50:05;35.63;;;23.48;;
59786;SDS011;45672;51.612;5.536;2023-02-13T17:52:31;37.53;;;22.63;;
59786;SDS011;45672;51.612;5.536;2023-02-13T17:54:57;39.45;;;23.52;;
59786;SDS011;45672;51.612;5.536;2023-02-13T17:57:22;31.25;;;21.80;;
59786;SDS011;45672;51.612;5.536;2023-02-13T17:59:47;32.63;;;21.23;;
59786;SDS011;45672;51.612;5.536;2023-02-13T18:02:16;35.55;;;21.33;;